createdAt,value
2018-08-03T00:02:06.993Z,101875.44
2018-08-03T00:04:35.173Z,101878.95
2018-08-03T00:07:03.346Z,101875.66
2018-08-03T00:09:32.294Z,101879.86
2018-08-03T00:12:00.452Z,101882.00
2018-08-03T00:14:28.925Z,101875.19
2018-08-03T00:16:57.165Z,101873.75
2018-08-03T00:19:25.312Z,101870.69
2018-08-03T00:21:53.480Z,101872.38
2018-08-03T00:24:21.666Z,101873.12
2018-08-03T00:26:50.198Z,101874.36
2018-08-03T00:29:18.332Z,101876.53
2018-08-03T00:31:46.496Z,101873.53
2018-08-03T00:34:14.618Z,101866.79
2018-08-03T00:36:42.793Z,101866.27
2018-08-03T00:39:11.575Z,101864.61
2018-08-03T00:41:39.725Z,101868.33
2018-08-03T00:44:07.881Z,101858.95
2018-08-03T00:46:36.091Z,101861.34
2018-08-03T00:49:04.251Z,101866.16
2018-08-03T00:51:32.353Z,101864.84
2018-08-03T00:54:00.548Z,101863.13
2018-08-03T00:56:28.700Z,101861.53
2018-08-03T00:58:56.877Z,101859.90
2018-08-03T01:01:25.025Z,101860.96
2018-08-03T01:03:53.161Z,101859.88
2018-08-03T01:06:21.317Z,101865.61
2018-08-03T01:08:49.468Z,101862.11
2018-08-03T01:11:17.622Z,101865.29
2018-08-03T01:13:45.741Z,101858.11
2018-08-03T01:16:13.888Z,101863.69
2018-08-03T01:18:42.070Z,101861.89
2018-08-03T01:21:10.267Z,101866.25
2018-08-03T01:23:38.468Z,101865.83
2018-08-03T01:26:06.622Z,101868.41
2018-08-03T01:28:35.361Z,101870.48
2018-08-03T01:31:03.572Z,101867.56
2018-08-03T01:33:31.749Z,101864.54
2018-08-03T01:36:00.024Z,101871.19
2018-08-03T01:38:29.186Z,101856.97
2018-08-03T01:40:57.360Z,101860.19
2018-08-03T01:43:25.540Z,101863.38
2018-08-03T01:45:53.716Z,101860.36
2018-08-03T01:48:21.838Z,101866.06
2018-08-03T01:50:50.003Z,101861.52
2018-08-03T01:53:18.146Z,101857.66
2018-08-03T01:55:46.510Z,101858.09
2018-08-03T01:58:14.673Z,101862.39
2018-08-03T02:00:43.026Z,101859.00
2018-08-03T02:03:12.337Z,101863.88
2018-08-03T02:05:40.430Z,101865.11
2018-08-03T02:08:08.546Z,101866.25
2018-08-03T02:10:36.690Z,101869.30
2018-08-03T02:13:04.878Z,101873.26
2018-08-03T02:15:33.172Z,101869.02
2018-08-03T02:18:01.288Z,101874.18
2018-08-03T02:20:29.620Z,101871.30
2018-08-03T02:22:57.766Z,101876.36
2018-08-03T02:25:25.917Z,101877.69
2018-08-03T02:27:54.040Z,101875.41
2018-08-03T02:30:22.916Z,101869.66
2018-08-03T02:32:51.091Z,101870.07
2018-08-03T02:35:19.249Z,101868.35
2018-08-03T02:37:47.425Z,101871.34
2018-08-03T02:40:15.548Z,101872.34
2018-08-03T02:42:43.657Z,101873.28
2018-08-03T02:45:11.836Z,101866.67
2018-08-03T02:47:39.968Z,101862.23
2018-08-03T02:50:08.104Z,101864.93
2018-08-03T02:52:36.280Z,101860.59
2018-08-03T02:55:04.558Z,101859.64
2018-08-03T02:57:32.667Z,101865.21
2018-08-03T03:00:00.762Z,101865.31
2018-08-03T03:02:28.918Z,101866.52
2018-08-03T03:04:57.017Z,101866.73
2018-08-03T03:07:25.199Z,101864.66
2018-08-03T03:09:53.321Z,101861.60
2018-08-03T03:12:21.458Z,101857.36
2018-08-03T03:14:49.604Z,101862.14
2018-08-03T03:17:17.888Z,101865.16
2018-08-03T03:19:46.008Z,101866.77
2018-08-03T03:22:14.185Z,101868.80
2018-08-03T03:24:42.394Z,101866.41
2018-08-03T03:27:10.549Z,101864.19
2018-08-03T03:29:38.714Z,101866.03
2018-08-03T03:32:06.885Z,101868.53
2018-08-03T03:34:35.059Z,101871.89
2018-08-03T03:37:03.190Z,101873.78
2018-08-03T03:39:31.314Z,101868.49
2018-08-03T03:41:59.481Z,101871.68
2018-08-03T03:44:27.645Z,101867.58
2018-08-03T03:46:55.844Z,101865.02
2018-08-03T03:49:24.104Z,101871.44
2018-08-03T03:51:52.301Z,101873.25
2018-08-03T03:54:20.479Z,101867.86
2018-08-03T03:56:48.645Z,101865.03
2018-08-03T03:59:16.831Z,101868.10
2018-08-03T04:01:45.016Z,101866.67
2018-08-03T04:04:13.170Z,101860.61
2018-08-03T04:06:41.342Z,101862.86
2018-08-03T04:09:11.658Z,101860.90
2018-08-03T04:11:39.914Z,101864.20
2018-08-03T04:14:08.340Z,101862.56
2018-08-03T04:16:37.287Z,101862.20
2018-08-03T04:19:05.602Z,101862.00
2018-08-03T04:21:33.759Z,101859.27
2018-08-03T04:24:01.946Z,101862.23
2018-08-03T04:26:30.212Z,101861.01
2018-08-03T04:28:58.815Z,101861.50
2018-08-03T04:31:27.135Z,101862.83
2018-08-03T04:33:55.237Z,101866.18
2018-08-03T04:36:23.440Z,101865.20
2018-08-03T04:38:51.636Z,101855.57
2018-08-03T04:41:19.753Z,101862.37
2018-08-03T04:43:47.901Z,101864.10
2018-08-03T04:46:16.109Z,101864.80
2018-08-03T04:48:44.303Z,101866.81
2018-08-03T04:51:12.774Z,101863.29
2018-08-03T04:53:40.929Z,101867.67
2018-08-03T04:56:09.151Z,101871.63
2018-08-03T04:58:37.357Z,101877.25
2018-08-03T05:01:05.540Z,101867.83
2018-08-03T05:03:33.765Z,101872.39
2018-08-03T05:06:01.913Z,101878.59
2018-08-03T05:08:30.107Z,101884.17
2018-08-03T05:10:58.287Z,101883.73
2018-08-03T05:13:26.443Z,101880.20
2018-08-03T05:15:54.615Z,101881.91
2018-08-03T05:18:22.789Z,101881.28
2018-08-03T05:20:50.933Z,101877.53
2018-08-03T05:23:19.055Z,101879.68
2018-08-03T05:25:47.227Z,101883.64
2018-08-03T05:28:15.394Z,101882.51
2018-08-03T05:30:43.545Z,101886.27
2018-08-03T05:33:11.669Z,101884.16
2018-08-03T05:35:39.798Z,101891.55
2018-08-03T05:38:08.306Z,101887.02
2018-08-03T05:40:36.487Z,101882.09
2018-08-03T05:43:04.673Z,101887.95
2018-08-03T05:45:32.889Z,101885.13
2018-08-03T05:48:00.996Z,101878.17
2018-08-03T05:50:29.186Z,101878.03
2018-08-03T05:52:57.331Z,101876.55
2018-08-03T05:55:25.472Z,101874.66
2018-08-03T05:57:53.628Z,101869.12
2018-08-03T06:00:21.782Z,101863.14
2018-08-03T06:02:50.098Z,101872.09
2018-08-03T06:05:18.355Z,101875.81
2018-08-03T06:07:46.529Z,101874.66
2018-08-03T06:10:14.670Z,101876.27
2018-08-03T06:12:43.362Z,101872.81
2018-08-03T06:15:11.949Z,101877.83
2018-08-03T06:17:40.482Z,101881.39
2018-08-03T06:20:10.565Z,101873.41
2018-08-03T06:22:38.699Z,101879.99
2018-08-03T06:25:07.627Z,101882.14
2018-08-03T06:27:35.762Z,101880.06
2018-08-03T06:30:04.307Z,101879.47
2018-08-03T06:32:32.452Z,101876.83
2018-08-03T06:35:00.632Z,101874.16
2018-08-03T06:37:28.756Z,101884.92
2018-08-03T06:39:56.904Z,101872.81
2018-08-03T06:42:25.062Z,101875.03
2018-08-03T06:44:53.165Z,101876.12
2018-08-03T06:47:21.311Z,101876.41
2018-08-03T06:49:49.408Z,101877.55
2018-08-03T06:52:17.533Z,101879.24
2018-08-03T06:54:45.645Z,101877.33
2018-08-03T06:57:13.815Z,101876.83
2018-08-03T06:59:41.962Z,101871.19
2018-08-03T07:02:10.066Z,101871.61
2018-08-03T07:04:38.261Z,101873.11
2018-08-03T07:07:06.507Z,101867.44
2018-08-03T07:09:34.724Z,101876.52
2018-08-03T07:12:02.925Z,101871.73
2018-08-03T07:14:31.052Z,101872.52
2018-08-03T07:16:59.178Z,101873.13
2018-08-03T07:19:27.315Z,101866.67
2018-08-03T07:21:55.444Z,101869.93
2018-08-03T07:24:23.572Z,101868.82
2018-08-03T07:26:51.725Z,101869.12
2018-08-03T07:29:19.864Z,101872.34
2018-08-03T07:31:48.008Z,101866.92
2018-08-03T07:34:16.138Z,101869.38
2018-08-03T07:36:44.256Z,101867.77
2018-08-03T07:39:12.427Z,101861.21
2018-08-03T07:41:40.559Z,101867.41
2018-08-03T07:44:08.687Z,101864.40
2018-08-03T07:46:36.811Z,101863.38
2018-08-03T07:49:04.981Z,101867.56
2018-08-03T07:51:33.076Z,101863.41
2018-08-03T07:54:01.239Z,101863.76
2018-08-03T07:56:29.369Z,101860.89
2018-08-03T07:58:57.517Z,101865.65
2018-08-03T08:01:25.668Z,101863.52
2018-08-03T08:03:54.455Z,101864.05
2018-08-03T08:06:22.696Z,101858.38
2018-08-03T08:08:51.135Z,101859.50
2018-08-03T08:11:19.294Z,101867.69
2018-08-03T08:13:47.461Z,101863.48
2018-08-03T08:16:15.581Z,101858.75
2018-08-03T08:18:43.701Z,101864.82
2018-08-03T08:21:11.846Z,101856.94
2018-08-03T08:23:39.997Z,101855.69
2018-08-03T08:26:08.309Z,101857.20
2018-08-03T08:28:36.422Z,101858.16
2018-08-03T08:31:04.597Z,101854.66
2018-08-03T08:33:32.734Z,101859.55
2018-08-03T08:36:00.846Z,101844.53
2018-08-03T08:38:29.029Z,101841.47
2018-08-03T08:40:57.153Z,101848.47
2018-08-03T08:43:25.307Z,101843.63
2018-08-03T08:45:53.401Z,101838.85
2018-08-03T08:48:21.556Z,101832.27
2018-08-03T08:50:49.741Z,101829.41
2018-08-03T08:53:17.924Z,101829.92
2018-08-03T08:55:46.038Z,101825.38
2018-08-03T08:58:14.178Z,101814.28
2018-08-03T09:00:42.310Z,101813.86
2018-08-03T09:03:10.457Z,101811.80
2018-08-03T09:05:38.647Z,101815.39
2018-08-03T09:08:06.805Z,101809.86
2018-08-03T09:10:34.927Z,101814.70
2018-08-03T09:13:03.124Z,101799.44
2018-08-03T09:15:31.178Z,101803.11
2018-08-03T09:17:59.339Z,101799.14
2018-08-03T09:20:27.468Z,101794.64
2018-08-03T09:22:55.604Z,101791.73
2018-08-03T09:25:23.785Z,101803.11
2018-08-03T09:27:51.913Z,101796.89
2018-08-03T09:30:20.041Z,101784.84
2018-08-03T09:32:48.157Z,101781.56
2018-08-03T09:35:16.333Z,101776.81
2018-08-03T09:37:44.518Z,101778.75
2018-08-03T09:40:12.694Z,101777.25
2018-08-03T09:42:40.817Z,101778.35
2018-08-03T09:45:09.006Z,101778.48
2018-08-03T09:47:37.114Z,101771.12
2018-08-03T09:50:05.364Z,101773.78
2018-08-03T09:52:33.539Z,101772.36
2018-08-03T09:55:01.684Z,101765.64
2018-08-03T09:57:29.780Z,101768.63
2018-08-03T09:59:57.904Z,101768.63
2018-08-03T10:02:26.047Z,101769.91
2018-08-03T10:04:54.199Z,101757.64
2018-08-03T10:07:22.412Z,101753.97
2018-08-03T10:09:50.542Z,101757.14
2018-08-03T10:12:18.689Z,101756.53
2018-08-03T10:14:46.828Z,101758.00
2018-08-03T10:17:14.967Z,101748.64
2018-08-03T10:19:43.124Z,101741.48
2018-08-03T10:22:11.279Z,101744.66
2018-08-03T10:24:39.413Z,101736.53
2018-08-03T10:27:07.546Z,101742.42
2018-08-03T10:29:35.735Z,101730.94
2018-08-03T10:32:03.906Z,101734.23
2018-08-03T10:34:32.078Z,101729.92
2018-08-03T10:37:00.237Z,101724.72
2018-08-03T10:39:28.350Z,101723.77
2018-08-03T10:41:56.460Z,101717.02
2018-08-03T10:44:24.578Z,101719.09
2018-08-03T10:46:52.705Z,101718.53
2018-08-03T10:49:20.856Z,101717.42
2018-08-03T10:51:49.016Z,101714.83
2018-08-03T10:54:17.176Z,101712.92
2018-08-03T10:56:45.339Z,101715.50
2018-08-03T10:59:13.451Z,101704.75
2018-08-03T11:01:41.679Z,101705.33
2018-08-03T11:04:09.808Z,101699.73
2018-08-03T11:06:38.046Z,101701.10
2018-08-03T11:09:07.807Z,101704.36
2018-08-03T11:11:36.088Z,101693.09
2018-08-03T11:14:04.277Z,101691.55
2018-08-03T11:16:32.379Z,101691.12
2018-08-03T11:19:00.524Z,101694.89
2018-08-03T11:21:28.726Z,101686.17
2018-08-03T11:23:56.890Z,101691.14
2018-08-03T11:26:25.062Z,101685.30
2018-08-03T11:28:53.202Z,101692.53
2018-08-03T11:31:21.381Z,101690.63
2018-08-03T11:33:49.533Z,101688.16
2018-08-03T11:36:17.680Z,101689.46
2018-08-03T11:38:45.791Z,101685.39
2018-08-03T11:41:13.926Z,101682.55
2018-08-03T11:43:42.144Z,101681.08
2018-08-03T11:46:10.289Z,101675.80
2018-08-03T11:48:38.421Z,101679.86
2018-08-03T11:51:06.687Z,101678.02
2018-08-03T11:53:34.857Z,101675.05
2018-08-03T11:56:02.996Z,101666.61
2018-08-03T11:58:31.177Z,101663.13
2018-08-03T12:00:59.347Z,101655.76
2018-08-03T12:03:27.525Z,101652.33
2018-08-03T12:05:55.657Z,101656.80
2018-08-03T12:08:23.813Z,101654.97
2018-08-03T12:10:51.913Z,101657.45
2018-08-03T12:13:20.056Z,101650.91
2018-08-03T12:15:48.196Z,101643.22
2018-08-03T12:18:16.333Z,101640.02
2018-08-03T12:20:46.150Z,101641.64
2018-08-03T12:23:14.640Z,101638.60
2018-08-03T12:25:42.999Z,101644.94
2018-08-03T12:28:11.617Z,101639.24
2018-08-03T12:30:39.783Z,101639.41
2018-08-03T12:33:08.689Z,101639.24
2018-08-03T12:35:36.845Z,101636.95
2018-08-03T12:38:05.047Z,101641.09
2018-08-03T12:40:33.198Z,101641.51
2018-08-03T12:43:01.388Z,101636.22
2018-08-03T12:45:33.996Z,101637.16
2018-08-03T12:47:57.692Z,101628.75
2018-08-03T12:50:25.894Z,101627.63
2018-08-03T12:52:54.098Z,101621.86
2018-08-03T12:55:22.469Z,101620.08
2018-08-03T12:57:50.630Z,101616.52
2018-08-03T13:00:18.810Z,101618.29
2018-08-03T13:02:46.982Z,101613.58
2018-08-03T13:05:15.144Z,101612.73
2018-08-03T13:07:43.366Z,101614.70
2018-08-03T13:10:11.506Z,101607.41
2018-08-03T13:12:39.677Z,101609.28
2018-08-03T13:15:08.891Z,101597.67
2018-08-03T13:17:37.086Z,101597.23
2018-08-03T13:20:05.502Z,101587.05
2018-08-03T13:22:33.637Z,101588.25
2018-08-03T13:25:01.788Z,101588.77
2018-08-03T13:27:30.009Z,101593.70
2018-08-03T13:29:58.136Z,101584.75
2018-08-03T13:32:26.307Z,101586.44
2018-08-03T13:34:54.490Z,101587.64
2018-08-03T13:37:22.680Z,101585.16
2018-08-03T13:39:50.880Z,101586.83
2018-08-03T13:42:19.037Z,101577.30
2018-08-03T13:44:47.229Z,101581.42
2018-08-03T13:47:15.401Z,101575.60
2018-08-03T13:49:43.541Z,101576.86
2018-08-03T13:52:11.681Z,101573.52
2018-08-03T13:54:39.842Z,101571.83
2018-08-03T13:57:07.995Z,101563.83
2018-08-03T13:59:36.178Z,101565.37
2018-08-03T14:02:18.220Z,101562.48
2018-08-03T14:04:46.397Z,101559.68
2018-08-03T14:07:14.586Z,101565.59
2018-08-03T14:09:42.749Z,101556.50
2018-08-03T14:12:10.953Z,101558.17
2018-08-03T14:14:40.133Z,101557.19
2018-08-03T14:17:08.414Z,101563.92
2018-08-03T14:19:36.601Z,101556.36
2018-08-03T14:22:05.134Z,101547.77
2018-08-03T14:24:33.308Z,101556.77
2018-08-03T14:27:01.573Z,101541.64
2018-08-03T14:29:29.745Z,101543.94
2018-08-03T14:31:57.942Z,101538.31
2018-08-03T14:34:26.207Z,101536.00
2018-08-03T14:36:54.637Z,101533.20
2018-08-03T14:39:22.801Z,101540.62
2018-08-03T14:41:50.993Z,101528.52
2018-08-03T14:44:19.226Z,101530.30
2018-08-03T14:46:47.379Z,101529.05
2018-08-03T14:49:15.585Z,101526.55
2018-08-03T14:51:43.853Z,101522.89
2018-08-03T14:54:11.997Z,101522.72
2018-08-03T14:56:40.301Z,101515.45
2018-08-03T14:59:08.432Z,101511.75
2018-08-03T15:01:36.598Z,101508.41
2018-08-03T15:04:04.792Z,101504.23
2018-08-03T15:06:32.969Z,101511.32
2018-08-03T15:09:01.122Z,101503.82
2018-08-03T15:11:29.394Z,101502.36
2018-08-03T15:13:57.546Z,101491.63
2018-08-03T15:16:25.694Z,101501.18
2018-08-03T15:18:53.890Z,101497.45
2018-08-03T15:21:22.050Z,101493.67
2018-08-03T15:23:50.218Z,101502.52
2018-08-03T15:26:18.422Z,101500.47
2018-08-03T15:28:46.601Z,101500.17
2018-08-03T15:31:14.816Z,101501.75
2018-08-03T15:33:42.993Z,101497.38
2018-08-03T15:36:11.234Z,101499.75
2018-08-03T15:38:39.404Z,101491.20
2018-08-03T15:41:07.751Z,101501.44
2018-08-03T15:43:35.991Z,101492.90
2018-08-03T15:46:04.167Z,101499.47
2018-08-03T15:48:32.285Z,101492.93
2018-08-03T15:51:00.434Z,101485.13
2018-08-03T15:53:28.661Z,101487.81
2018-08-03T15:55:56.789Z,101481.14
2018-08-03T15:58:24.918Z,101479.27
2018-08-03T16:00:53.064Z,101475.62
2018-08-03T16:03:21.253Z,101472.66
2018-08-03T16:05:49.427Z,101475.49
2018-08-03T16:08:17.543Z,101467.70
2018-08-03T16:10:45.729Z,101467.43
2018-08-03T16:13:13.861Z,101464.53
2018-08-03T16:15:42.143Z,101460.94
2018-08-03T16:18:10.307Z,101459.55
2018-08-03T16:20:38.524Z,101458.04
2018-08-03T16:23:07.010Z,101454.60
2018-08-03T16:25:35.161Z,101452.23
2018-08-03T16:28:03.321Z,101458.25
2018-08-03T16:30:31.537Z,101457.22
2018-08-03T16:32:59.688Z,101452.42
2018-08-03T16:35:27.830Z,101450.76
2018-08-03T16:37:55.954Z,101457.75
2018-08-03T16:40:24.117Z,101457.23
2018-08-03T16:42:52.249Z,101458.59
2018-08-03T16:45:20.384Z,101459.47
2018-08-03T16:47:48.604Z,101454.43
2018-08-03T16:50:16.771Z,101462.94
2018-08-03T16:52:44.947Z,101465.27
2018-08-03T16:55:13.106Z,101461.48
2018-08-03T16:57:41.256Z,101455.56
2018-08-03T17:00:09.419Z,101454.45
2018-08-03T17:02:37.622Z,101455.10
2018-08-03T17:05:05.821Z,101455.56
2018-08-03T17:07:33.965Z,101456.08
2018-08-03T17:10:02.165Z,101455.20
2018-08-03T17:12:30.320Z,101454.60
2018-08-03T17:14:58.483Z,101453.83
2018-08-03T17:17:26.674Z,101454.12
2018-08-03T17:19:54.813Z,101448.62
2018-08-03T17:22:23.002Z,101456.30
2018-08-03T17:24:52.663Z,101450.30
2018-08-03T17:27:20.989Z,101450.07
2018-08-03T17:29:49.198Z,101445.06
2018-08-03T17:32:17.368Z,101447.63
2018-08-03T17:34:45.521Z,101451.28
2018-08-03T17:37:13.702Z,101452.08
2018-08-03T17:39:41.844Z,101451.90
2018-08-03T17:42:09.937Z,101446.31
2018-08-03T17:44:38.068Z,101447.62
2018-08-03T17:47:06.201Z,101453.31
2018-08-03T17:49:34.355Z,101448.35
2018-08-03T17:52:02.526Z,101443.87
2018-08-03T17:54:30.653Z,101444.39
2018-08-03T17:56:58.785Z,101452.77
2018-08-03T17:59:26.954Z,101456.11
2018-08-03T18:01:55.072Z,101450.64
2018-08-03T18:04:23.200Z,101450.70
2018-08-03T18:06:51.360Z,101456.20
2018-08-03T18:09:19.558Z,101454.77
2018-08-03T18:11:48.214Z,101457.62
2018-08-03T18:14:16.368Z,101458.27
2018-08-03T18:16:44.510Z,101456.82
2018-08-03T18:19:12.687Z,101456.14
2018-08-03T18:21:40.978Z,101458.22
2018-08-03T18:24:09.167Z,101464.88
2018-08-03T18:26:37.303Z,101468.58
2018-08-03T18:29:05.569Z,101463.78
2018-08-03T18:31:33.677Z,101474.58
2018-08-03T18:34:01.852Z,101472.75
2018-08-03T18:36:30.026Z,101475.90
2018-08-03T18:38:59.016Z,101478.08
2018-08-03T18:41:27.517Z,101470.92
2018-08-03T18:43:55.699Z,101474.03
2018-08-03T18:46:24.874Z,101479.64
2018-08-03T18:48:53.146Z,101476.68
2018-08-03T18:51:22.956Z,101476.06
2018-08-03T18:53:51.132Z,101480.63
2018-08-03T18:56:19.419Z,101486.34
2018-08-03T18:58:47.553Z,101485.22
2018-08-03T19:01:15.750Z,101493.80
2018-08-03T19:03:43.925Z,101496.05
2018-08-03T19:06:12.115Z,101489.19
2018-08-03T19:08:40.809Z,101490.41
2018-08-03T19:11:08.982Z,101491.27
2018-08-03T19:13:37.170Z,101495.30
2018-08-03T19:16:05.323Z,101499.17
2018-08-03T19:18:33.576Z,101496.34
2018-08-03T19:21:01.809Z,101501.72
2018-08-03T19:23:30.056Z,101496.68
2018-08-03T19:25:58.275Z,101505.25
2018-08-03T19:28:26.511Z,101510.11
2018-08-03T19:30:54.604Z,101501.75
2018-08-03T19:33:22.747Z,101511.97
2018-08-03T19:35:50.948Z,101515.78
2018-08-03T19:38:19.169Z,101510.73
2018-08-03T19:40:47.413Z,101513.25
2018-08-03T19:43:15.923Z,101513.58
2018-08-03T19:45:44.109Z,101517.94
2018-08-03T19:48:12.273Z,101515.58
2018-08-03T19:50:40.497Z,101510.02
2018-08-03T19:53:09.945Z,101521.75
2018-08-03T19:55:38.121Z,101517.38
2018-08-03T19:58:06.305Z,101522.70
2018-08-03T20:00:34.465Z,101522.81
2018-08-03T20:03:02.695Z,101519.61
2018-08-03T20:05:30.836Z,101517.39
2018-08-03T20:07:59.017Z,101519.39
2018-08-03T20:10:27.168Z,101524.53
2018-08-03T20:12:55.306Z,101515.61
2018-08-03T20:15:23.431Z,101516.45
2018-08-03T20:17:51.655Z,101518.27
2018-08-03T20:20:19.843Z,101515.22
2018-08-03T20:22:47.993Z,101511.17
2018-08-03T20:25:16.169Z,101510.83
2018-08-03T20:27:44.348Z,101510.99
2018-08-03T20:30:12.543Z,101512.52
2018-08-03T20:32:40.669Z,101516.34
2018-08-03T20:35:08.861Z,101513.54
2018-08-03T20:37:38.154Z,101517.02
2018-08-03T20:40:07.929Z,101518.20
2018-08-03T20:42:36.077Z,101522.11
2018-08-03T20:45:05.064Z,101519.85
2018-08-03T20:47:33.217Z,101526.50
2018-08-03T20:50:01.369Z,101519.77
2018-08-03T20:52:29.552Z,101532.90
2018-08-03T20:54:57.733Z,101529.98
2018-08-03T20:57:25.848Z,101534.25
2018-08-03T20:59:53.960Z,101529.41
2018-08-03T21:02:22.085Z,101535.30
2018-08-03T21:04:50.196Z,101530.73
2018-08-03T21:07:18.314Z,101531.03
2018-08-03T21:09:46.497Z,101529.65
2018-08-03T21:12:14.632Z,101526.31
2018-08-03T21:14:42.777Z,101526.38
2018-08-03T21:17:10.926Z,101522.50
2018-08-03T21:19:39.030Z,101521.04
2018-08-03T21:22:07.159Z,101519.93
2018-08-03T21:24:35.298Z,101519.53
2018-08-03T21:27:03.414Z,101521.22
2018-08-03T21:29:31.513Z,101515.17
2018-08-03T21:31:59.691Z,101515.95
2018-08-03T21:34:27.860Z,101517.31
2018-08-03T21:36:56.003Z,101513.02
2018-08-03T21:39:24.154Z,101517.98
2018-08-03T21:41:52.300Z,101518.28
2018-08-03T21:44:20.471Z,101520.52
2018-08-03T21:46:48.658Z,101514.97
2018-08-03T21:49:17.493Z,101514.68
2018-08-03T21:51:45.611Z,101512.73
2018-08-03T21:54:13.750Z,101506.30
2018-08-03T21:56:41.901Z,101504.87
2018-08-03T21:59:10.031Z,101512.39
2018-08-03T22:01:38.157Z,101508.61
2018-08-03T22:04:06.303Z,101505.19
2018-08-03T22:06:34.400Z,101503.70
2018-08-03T22:09:02.561Z,101505.64
2018-08-03T22:11:30.691Z,101497.86
2018-08-03T22:13:58.816Z,101492.58
2018-08-03T22:16:26.925Z,101499.60
2018-08-03T22:18:55.962Z,101500.28
2018-08-03T22:21:24.045Z,101498.27
2018-08-03T22:23:52.191Z,101503.33
2018-08-03T22:26:20.308Z,101499.95
2018-08-03T22:28:48.444Z,101501.01
2018-08-03T22:31:16.568Z,101501.60
2018-08-03T22:33:44.765Z,101501.67
2018-08-03T22:36:12.866Z,101500.61
2018-08-03T22:38:41.011Z,101496.12
2018-08-03T22:41:09.309Z,101491.91
2018-08-03T22:43:37.444Z,101498.09
2018-08-03T22:46:05.578Z,101499.20
2018-08-03T22:48:33.719Z,101495.14
2018-08-03T22:51:01.875Z,101490.25
2018-08-03T22:53:30.017Z,101481.28
2018-08-03T22:55:58.132Z,101490.02
2018-08-03T22:58:26.264Z,101493.31
2018-08-03T23:00:54.413Z,101497.31
2018-08-03T23:03:22.532Z,101492.42
2018-08-03T23:05:50.657Z,101492.62
2018-08-03T23:08:18.821Z,101494.02
2018-08-03T23:10:46.967Z,101497.41
2018-08-03T23:13:15.095Z,101498.52
2018-08-03T23:15:43.247Z,101507.06
2018-08-03T23:18:11.370Z,101510.00
2018-08-03T23:20:40.153Z,101508.68
2018-08-03T23:23:08.989Z,101500.59
2018-08-03T23:25:37.157Z,101500.23
2018-08-03T23:28:05.321Z,101494.06
2018-08-03T23:30:33.485Z,101498.52
2018-08-03T23:33:01.653Z,101495.66
2018-08-03T23:35:29.832Z,101499.44
2018-08-03T23:37:57.956Z,101498.55
2018-08-03T23:40:26.087Z,101497.41
2018-08-03T23:42:54.217Z,101501.36
2018-08-03T23:45:22.401Z,101496.30
2018-08-03T23:47:50.577Z,101488.23
2018-08-03T23:50:19.376Z,101489.33
2018-08-03T23:52:48.983Z,101491.62
2018-08-03T23:55:17.109Z,101483.98
2018-08-03T23:57:45.593Z,101479.33
